Flood From: 24-01-2018 06:00 Until: 25-01-2018 06:00 warning for: Flood Level: Yellow info button

Although rather usual in this region, locally or potentially dangerous phenomena are expected. (such as local winds, summer thunderstorms, rising streams or high waves) Be aware and pay attention to the latest weather updates, especially if you carry out activities exposed to weather or close to a stream or shoreline. 


Meteo18 Weather Cam more information Meteo18 Weather Cam


Thunder radar more information blitzortung!


Rain radar more information rain snow radar


Visit our other weather sites:

Template documentation
and downloads

And another site



Weather Underground History page Text

Daily Summary for September 6, 2017 Units:  Both    English   Metric
« Previous Day
Next Day »
Daily Weekly Monthly Yearly Custom
  High: Low: Average:
Temperature: 68.7 °F /  20.4 °C 56.8 °F /  13.8 °C 62.8 °F /  17.1 °C
Dew Point: 59.7 °F /  15.4 °C 47.7 °F /  8.7 °C 52.2 °F /  11.2 °C
Humidity: 91 % 48 % 69 %
Wind Speed: 13 mph /  20.9 km/h - 4.2 mph /  6.8 km/h
Wind Gust: 18 mph /  29.0 km/h - -
Wind:- - West
Pressure: 30.3 in /  1025.3 hPa 30.2 in /  1021.9 hPa -
Precipitation: 0 in /  0.0 mm    
Historical Graphs
 
 
Tabular Data for September 6, 2017
Time Temperature Dew Point Pressure Wind Wind Speed Wind Gust Humidity Rainfall Rate (Hourly)
00:02 67.1 °F /  19.5 °C 59.7 °F /  15.4 °C 30.2 in /  1021.9 hPa WSW 3 mph /  4.8 km/h 11 mph /  17.7 km/h 77 % 0 in /  0.0 mm
00:07 66.9 °F /  19.4 °C 59.5 °F /  15.3 °C 30.2 in /  1021.9 hPa WSW 6 mph /  9.7 km/h 11 mph /  17.7 km/h 77 % 0 in /  0.0 mm
00:12 66.7 °F /  19.3 °C 59.7 °F /  15.4 °C 30.2 in /  1021.9 hPa West 6 mph /  9.7 km/h 11 mph /  17.7 km/h 78 % 0 in /  0.0 mm
00:17 66.6 °F /  19.2 °C 59.5 °F /  15.3 °C 30.2 in /  1021.9 hPa WSW 2 mph /  3.2 km/h 10 mph /  16.1 km/h 78 % 0 in /  0.0 mm
00:22 66.6 °F /  19.2 °C 59.5 °F /  15.3 °C 30.2 in /  1021.9 hPa WSW 6 mph /  9.7 km/h 9 mph /  14.5 km/h 78 % 0 in /  0.0 mm
00:32 66.2 °F /  19.0 °C 59.5 °F /  15.3 °C 30.2 in /  1021.9 hPa SW 2 mph /  3.2 km/h 8 mph /  12.9 km/h 79 % 0 in /  0.0 mm
00:42 66 °F /  18.9 °C 59.4 °F /  15.2 °C 30.2 in /  1021.9 hPa West 6 mph /  9.7 km/h 8 mph /  12.9 km/h 79 % 0 in /  0.0 mm
00:47 66 °F /  18.9 °C 59.4 °F /  15.2 °C 30.2 in /  1021.9 hPa SW 3 mph /  4.8 km/h 12 mph /  19.3 km/h 79 % 0 in /  0.0 mm
00:52 66 °F /  18.9 °C 59.4 °F /  15.2 °C 30.2 in /  1022.2 hPa WSW 6 mph /  9.7 km/h 12 mph /  19.3 km/h 79 % 0 in /  0.0 mm
00:57 65.8 °F /  18.8 °C 59.2 °F /  15.1 °C 30.2 in /  1022.2 hPa SW 2 mph /  3.2 km/h 12 mph /  19.3 km/h 79 % 0 in /  0.0 mm
01:02 65.7 °F /  18.7 °C 59.4 °F /  15.2 °C 30.2 in /  1022.2 hPa WSW 5 mph /  8.0 km/h 11 mph /  17.7 km/h 80 % 0 in /  0.0 mm
01:07 65.5 °F /  18.6 °C 59.2 °F /  15.1 °C 30.2 in /  1022.2 hPa WSW 5 mph /  8.0 km/h 11 mph /  17.7 km/h 80 % 0 in /  0.0 mm
01:12 65.5 °F /  18.6 °C 59.2 °F /  15.1 °C 30.2 in /  1022.2 hPa West 5 mph /  8.0 km/h 11 mph /  17.7 km/h 80 % 0 in /  0.0 mm
01:17 65.1 °F /  18.4 °C 59.2 °F /  15.1 °C 30.2 in /  1022.2 hPa WSW 4 mph /  6.4 km/h 9 mph /  14.5 km/h 81 % 0 in /  0.0 mm
01:22 64.9 °F /  18.3 °C 59 °F /  15.0 °C 30.2 in /  1022.2 hPa West 3 mph /  4.8 km/h 8 mph /  12.9 km/h 81 % 0 in /  0.0 mm
01:27 64.8 °F /  18.2 °C 58.8 °F /  14.9 °C 30.2 in /  1022.2 hPa West 2 mph /  3.2 km/h 7 mph /  11.3 km/h 81 % 0 in /  0.0 mm
01:32 64.6 °F /  18.1 °C 59 °F /  15.0 °C 30.2 in /  1022.2 hPa WNW 3 mph /  4.8 km/h 6 mph /  9.7 km/h 82 % 0 in /  0.0 mm
01:37 64.6 °F /  18.1 °C 59 °F /  15.0 °C 30.2 in /  1022.2 hPa WSW 5 mph /  8.0 km/h 6 mph /  9.7 km/h 82 % 0 in /  0.0 mm
01:42 64.6 °F /  18.1 °C 59 °F /  15.0 °C 30.2 in /  1022.2 hPa West 4 mph /  6.4 km/h 8 mph /  12.9 km/h 82 % 0 in /  0.0 mm
01:47 64.6 °F /  18.1 °C 59.4 °F /  15.2 °C 30.2 in /  1022.2 hPa West 4 mph /  6.4 km/h 9 mph /  14.5 km/h 83 % 0 in /  0.0 mm
01:52 64.4 °F /  18.0 °C 59.2 °F /  15.1 °C 30.2 in /  1022.2 hPa WSW 5 mph /  8.0 km/h 9 mph /  14.5 km/h 83 % 0 in /  0.0 mm
01:57 64.2 °F /  17.9 °C 59 °F /  15.0 °C 30.2 in /  1022.2 hPa West 3 mph /  4.8 km/h 8 mph /  12.9 km/h 83 % 0 in /  0.0 mm
02:02 64.2 °F /  17.9 °C 59 °F /  15.0 °C 30.2 in /  1022.2 hPa West 9 mph /  14.5 km/h 9 mph /  14.5 km/h 83 % 0 in /  0.0 mm
02:07 64.2 °F /  17.9 °C 59 °F /  15.0 °C 30.2 in /  1022.2 hPa WNW 6 mph /  9.7 km/h 11 mph /  17.7 km/h 83 % 0 in /  0.0 mm
02:12 64 °F /  17.8 °C 58.8 °F /  14.9 °C 30.2 in /  1022.6 hPa WNW 4 mph /  6.4 km/h 11 mph /  17.7 km/h 83 % 0 in /  0.0 mm
02:17 63.7 °F /  17.6 °C 58.5 °F /  14.7 °C 30.2 in /  1022.6 hPa WNW 4 mph /  6.4 km/h 11 mph /  17.7 km/h 83 % 0 in /  0.0 mm
02:22 63.7 °F /  17.6 °C 58.5 °F /  14.7 °C 30.2 in /  1022.6 hPa WNW 6 mph /  9.7 km/h 11 mph /  17.7 km/h 83 % 0 in /  0.0 mm
02:27 63.3 °F /  17.4 °C 58.5 °F /  14.7 °C 30.2 in /  1022.6 hPa West 6 mph /  9.7 km/h 12 mph /  19.3 km/h 84 % 0 in /  0.0 mm
02:32 63.1 °F /  17.3 °C 58.3 °F /  14.6 °C 30.2 in /  1022.6 hPa WNW 5 mph /  8.0 km/h 12 mph /  19.3 km/h 84 % 0 in /  0.0 mm
02:37 63 °F /  17.2 °C 58.1 °F /  14.5 °C 30.2 in /  1022.6 hPa WNW 3 mph /  4.8 km/h 10 mph /  16.1 km/h 84 % 0 in /  0.0 mm
02:42 62.8 °F /  17.1 °C 57.9 °F /  14.4 °C 30.2 in /  1022.6 hPa West 2 mph /  3.2 km/h 10 mph /  16.1 km/h 84 % 0 in /  0.0 mm
02:47 62.6 °F /  17.0 °C 57.7 °F /  14.3 °C 30.2 in /  1022.6 hPa West 3 mph /  4.8 km/h 9 mph /  14.5 km/h 84 % 0 in /  0.0 mm
02:52 62.4 °F /  16.9 °C 57.6 °F /  14.2 °C 30.2 in /  1022.6 hPa West 6 mph /  9.7 km/h 7 mph /  11.3 km/h 84 % 0 in /  0.0 mm
02:57 62.4 °F /  16.9 °C 57.6 °F /  14.2 °C 30.2 in /  1022.6 hPa West 3 mph /  4.8 km/h 11 mph /  17.7 km/h 84 % 0 in /  0.0 mm
03:02 62.4 °F /  16.9 °C 57.6 °F /  14.2 °C 30.2 in /  1022.6 hPa WSW 7 mph /  11.3 km/h 11 mph /  17.7 km/h 84 % 0 in /  0.0 mm
03:07 62.2 °F /  16.8 °C 57.4 °F /  14.1 °C 30.2 in /  1022.6 hPa West 3 mph /  4.8 km/h 11 mph /  17.7 km/h 84 % 0 in /  0.0 mm
03:12 62.1 °F /  16.7 °C 57.2 °F /  14.0 °C 30.2 in /  1022.6 hPa West 1 mph /  1.6 km/h 11 mph /  17.7 km/h 84 % 0 in /  0.0 mm
03:17 61.9 °F /  16.6 °C 57 °F /  13.9 °C 30.2 in /  1022.6 hPa West 4 mph /  6.4 km/h 11 mph /  17.7 km/h 84 % 0 in /  0.0 mm
03:22 61.9 °F /  16.6 °C 57.4 °F /  14.1 °C 30.2 in /  1022.6 hPa WNW 3 mph /  4.8 km/h 7 mph /  11.3 km/h 85 % 0 in /  0.0 mm
03:27 62.1 °F /  16.7 °C 57.6 °F /  14.2 °C 30.2 in /  1022.6 hPa West 2 mph /  3.2 km/h 9 mph /  14.5 km/h 85 % 0 in /  0.0 mm
03:32 62.1 °F /  16.7 °C 57.6 °F /  14.2 °C 30.2 in /  1022.9 hPa WNW 7 mph /  11.3 km/h 10 mph /  16.1 km/h 85 % 0 in /  0.0 mm
03:37 62.1 °F /  16.7 °C 57.6 °F /  14.2 °C 30.2 in /  1022.6 hPa West 9 mph /  14.5 km/h 10 mph /  16.1 km/h 85 % 0 in /  0.0 mm
03:42 62.1 °F /  16.7 °C 57.6 °F /  14.2 °C 30.2 in /  1022.9 hPa WSW 5 mph /  8.0 km/h 10 mph /  16.1 km/h 85 % 0 in /  0.0 mm
03:47 62.1 °F /  16.7 °C 57.6 °F /  14.2 °C 30.2 in /  1022.9 hPa West 3 mph /  4.8 km/h 10 mph /  16.1 km/h 85 % 0 in /  0.0 mm
03:52 62.1 °F /  16.7 °C 57.6 °F /  14.2 °C 30.2 in /  1022.9 hPa WSW 3 mph /  4.8 km/h 10 mph /  16.1 km/h 85 % 0 in /  0.0 mm
03:57 62.1 °F /  16.7 °C 57.6 °F /  14.2 °C 30.2 in /  1022.9 hPa West 7 mph /  11.3 km/h 10 mph /  16.1 km/h 85 % 0 in /  0.0 mm
04:02 62.1 °F /  16.7 °C 57.6 °F /  14.2 °C 30.2 in /  1022.9 hPa WSW 7 mph /  11.3 km/h 8 mph /  12.9 km/h 85 % 0 in /  0.0 mm
04:07 62.1 °F /  16.7 °C 57.6 °F /  14.2 °C 30.2 in /  1022.9 hPa WSW 2 mph /  3.2 km/h 8 mph /  12.9 km/h 85 % 0 in /  0.0 mm
04:12 61.9 °F /  16.6 °C 57.4 °F /  14.1 °C 30.2 in /  1022.9 hPa NW 4 mph /  6.4 km/h 8 mph /  12.9 km/h 85 % 0 in /  0.0 mm
04:17 61.9 °F /  16.6 °C 57.4 °F /  14.1 °C 30.2 in /  1022.9 hPa West 2 mph /  3.2 km/h 10 mph /  16.1 km/h 85 % 0 in /  0.0 mm
04:22 61.9 °F /  16.6 °C 57.4 °F /  14.1 °C 30.2 in /  1022.9 hPa WSW 3 mph /  4.8 km/h 10 mph /  16.1 km/h 85 % 0 in /  0.0 mm
04:27 61.9 °F /  16.6 °C 57.4 °F /  14.1 °C 30.2 in /  1022.9 hPa WNW 3 mph /  4.8 km/h 8 mph /  12.9 km/h 85 % 0 in /  0.0 mm
04:32 61.7 °F /  16.5 °C 57.2 °F /  14.0 °C 30.2 in /  1022.9 hPa SW 2 mph /  3.2 km/h 8 mph /  12.9 km/h 85 % 0 in /  0.0 mm
04:37 61.7 °F /  16.5 °C 57.2 °F /  14.0 °C 30.2 in /  1022.9 hPa WSW 4 mph /  6.4 km/h 9 mph /  14.5 km/h 85 % 0 in /  0.0 mm
04:42 61.7 °F /  16.5 °C 57.2 °F /  14.0 °C 30.2 in /  1022.9 hPa West 3 mph /  4.8 km/h 9 mph /  14.5 km/h 85 % 0 in /  0.0 mm
04:47 61.7 °F /  16.5 °C 57.2 °F /  14.0 °C 30.2 in /  1022.9 hPa WSW 4 mph /  6.4 km/h 9 mph /  14.5 km/h 85 % 0 in /  0.0 mm
04:52 61.5 °F /  16.4 °C 57 °F /  13.9 °C 30.2 in /  1022.9 hPa WNW 5 mph /  8.0 km/h 9 mph /  14.5 km/h 85 % 0 in /  0.0 mm
04:57 61.5 °F /  16.4 °C 57.4 °F /  14.1 °C 30.2 in /  1022.9 hPa WNW 6 mph /  9.7 km/h 10 mph /  16.1 km/h 86 % 0 in /  0.0 mm
05:02 61.2 °F /  16.2 °C 57.6 °F /  14.2 °C 30.2 in /  1022.9 hPa West 5 mph /  8.0 km/h 12 mph /  19.3 km/h 88 % 0 in /  0.0 mm
05:07 60.4 °F /  15.8 °C 57.2 °F /  14.0 °C 30.2 in /  1023.2 hPa NNW 8 mph /  12.9 km/h 12 mph /  19.3 km/h 89 % 0 in /  0.0 mm
05:17 59.2 °F /  15.1 °C 55.9 °F /  13.3 °C 30.2 in /  1023.2 hPa WNW 3 mph /  4.8 km/h 15 mph /  24.1 km/h 89 % 0 in /  0.0 mm
05:22 58.8 °F /  14.9 °C 55.9 °F /  13.3 °C 30.2 in /  1023.2 hPa WNW 7 mph /  11.3 km/h 15 mph /  24.1 km/h 90 % 0 in /  0.0 mm
05:27 58.6 °F /  14.8 °C 55.9 °F /  13.3 °C 30.2 in /  1023.2 hPa NW 2 mph /  3.2 km/h 11 mph /  17.7 km/h 91 % 0 in /  0.0 mm
05:32 58.5 °F /  14.7 °C 55.8 °F /  13.2 °C 30.2 in /  1023.2 hPa WNW 3 mph /  4.8 km/h 11 mph /  17.7 km/h 91 % 0 in /  0.0 mm
05:37 58.5 °F /  14.7 °C 55.8 °F /  13.2 °C 30.2 in /  1022.9 hPa WNW 6 mph /  9.7 km/h 10 mph /  16.1 km/h 91 % 0 in /  0.0 mm
05:42 58.5 °F /  14.7 °C 55.8 °F /  13.2 °C 30.2 in /  1022.9 hPa WSW 3 mph /  4.8 km/h 10 mph /  16.1 km/h 91 % 0 in /  0.0 mm
05:47 58.5 °F /  14.7 °C 55.8 °F /  13.2 °C 30.2 in /  1022.9 hPa WNW 6 mph /  9.7 km/h 9 mph /  14.5 km/h 91 % 0 in /  0.0 mm
05:52 58.5 °F /  14.7 °C 55.6 °F /  13.1 °C 30.2 in /  1022.9 hPa WNW 3 mph /  4.8 km/h 10 mph /  16.1 km/h 90 % 0 in /  0.0 mm
05:57 58.5 °F /  14.7 °C 55.6 °F /  13.1 °C 30.2 in /  1023.2 hPa WNW 8 mph /  12.9 km/h 10 mph /  16.1 km/h 90 % 0 in /  0.0 mm
06:02 58.5 °F /  14.7 °C 55.6 °F /  13.1 °C 30.2 in /  1023.2 hPa NW 4 mph /  6.4 km/h 11 mph /  17.7 km/h 90 % 0 in /  0.0 mm
06:07 58.5 °F /  14.7 °C 55.6 °F /  13.1 °C 30.2 in /  1023.2 hPa WNW 3 mph /  4.8 km/h 11 mph /  17.7 km/h 90 % 0 in /  0.0 mm
06:12 58.5 °F /  14.7 °C 55.2 °F /  12.9 °C 30.2 in /  1023.2 hPa NNW 1 mph /  1.6 km/h 11 mph /  17.7 km/h 89 % 0 in /  0.0 mm
06:17 58.6 °F /  14.8 °C 55.4 °F /  13.0 °C 30.2 in /  1023.2 hPa NW 6 mph /  9.7 km/h 10 mph /  16.1 km/h 89 % 0 in /  0.0 mm
06:22 58.6 °F /  14.8 °C 55.4 °F /  13.0 °C 30.2 in /  1023.2 hPa West 3 mph /  4.8 km/h 10 mph /  16.1 km/h 89 % 0 in /  0.0 mm
06:27 58.6 °F /  14.8 °C 55 °F /  12.8 °C 30.2 in /  1023.2 hPa WNW 4 mph /  6.4 km/h 8 mph /  12.9 km/h 88 % 0 in /  0.0 mm
06:32 58.6 °F /  14.8 °C 55 °F /  12.8 °C 30.2 in /  1023.2 hPa NNW 3 mph /  4.8 km/h 8 mph /  12.9 km/h 88 % 0 in /  0.0 mm
06:37 58.6 °F /  14.8 °C 55 °F /  12.8 °C 30.2 in /  1023.2 hPa WNW 4 mph /  6.4 km/h 8 mph /  12.9 km/h 88 % 0 in /  0.0 mm
06:42 58.6 °F /  14.8 °C 54.9 °F /  12.7 °C 30.2 in /  1023.2 hPa WNW 7 mph /  11.3 km/h 8 mph /  12.9 km/h 87 % 0 in /  0.0 mm
06:52 58.6 °F /  14.8 °C 54.9 °F /  12.7 °C 30.2 in /  1023.6 hPa NNW 3 mph /  4.8 km/h 11 mph /  17.7 km/h 87 % 0 in /  0.0 mm
06:57 58.5 °F /  14.7 °C 54.7 °F /  12.6 °C 30.2 in /  1023.6 hPa NW 2 mph /  3.2 km/h 10 mph /  16.1 km/h 87 % 0 in /  0.0 mm
07:02 58.5 °F /  14.7 °C 54.3 °F /  12.4 °C 30.2 in /  1023.6 hPa NNW 2 mph /  3.2 km/h 10 mph /  16.1 km/h 86 % 0 in /  0.0 mm
07:07 58.6 °F /  14.8 °C 54.5 °F /  12.5 °C 30.2 in /  1023.6 hPa WNW 5 mph /  8.0 km/h 10 mph /  16.1 km/h 86 % 0 in /  0.0 mm
07:12 58.5 °F /  14.7 °C 54.3 °F /  12.4 °C 30.2 in /  1023.6 hPa WNW 5 mph /  8.0 km/h 10 mph /  16.1 km/h 86 % 0 in /  0.0 mm
07:17 58.5 °F /  14.7 °C 54.3 °F /  12.4 °C 30.2 in /  1023.6 hPa NW 5 mph /  8.0 km/h 11 mph /  17.7 km/h 86 % 0 in /  0.0 mm
07:22 58.5 °F /  14.7 °C 54 °F /  12.2 °C 30.2 in /  1023.6 hPa WNW 7 mph /  11.3 km/h 11 mph /  17.7 km/h 85 % 0 in /  0.0 mm
07:32 58.3 °F /  14.6 °C 53.4 °F /  11.9 °C 30.2 in /  1023.6 hPa NW 10 mph /  16.1 km/h 13 mph /  20.9 km/h 84 % 0 in /  0.0 mm
07:37 58.3 °F /  14.6 °C 53.4 °F /  11.9 °C 30.2 in /  1023.9 hPa WNW 6 mph /  9.7 km/h 13 mph /  20.9 km/h 84 % 0 in /  0.0 mm
07:42 58.3 °F /  14.6 °C 53.4 °F /  11.9 °C 30.2 in /  1023.9 hPa WNW 7 mph /  11.3 km/h 12 mph /  19.3 km/h 84 % 0 in /  0.0 mm
07:52 57.9 °F /  14.4 °C 52.7 °F /  11.5 °C 30.3 in /  1024.3 hPa WNW 6 mph /  9.7 km/h 16 mph /  25.7 km/h 83 % 0 in /  0.0 mm
07:57 57.9 °F /  14.4 °C 53.1 °F /  11.7 °C 30.3 in /  1024.3 hPa Calm   16 mph /  25.7 km/h 84 % 0 in /  0.0 mm
08:02 57.7 °F /  14.3 °C 52.7 °F /  11.5 °C 30.3 in /  1024.3 hPa WNW 7 mph /  11.3 km/h 10 mph /  16.1 km/h 83 % 0 in /  0.0 mm
08:07 57.6 °F /  14.2 °C 52.5 °F /  11.4 °C 30.3 in /  1024.3 hPa NW 5 mph /  8.0 km/h 12 mph /  19.3 km/h 83 % 0 in /  0.0 mm
08:12 57.6 °F /  14.2 °C 52.5 °F /  11.4 °C 30.3 in /  1024.3 hPa WNW 4 mph /  6.4 km/h 12 mph /  19.3 km/h 83 % 0 in /  0.0 mm
08:17 57.4 °F /  14.1 °C 52.5 °F /  11.4 °C 30.3 in /  1024.3 hPa WNW 3 mph /  4.8 km/h 12 mph /  19.3 km/h 84 % 0 in /  0.0 mm
08:22 57 °F /  13.9 °C 52.2 °F /  11.2 °C 30.3 in /  1024.6 hPa WNW 5 mph /  8.0 km/h 10 mph /  16.1 km/h 84 % 0 in /  0.0 mm
08:27 56.8 °F /  13.8 °C 52 °F /  11.1 °C 30.3 in /  1024.6 hPa WNW 3 mph /  4.8 km/h 10 mph /  16.1 km/h 84 % 0 in /  0.0 mm
08:32 56.8 °F /  13.8 °C 52 °F /  11.1 °C 30.3 in /  1024.6 hPa WNW 7 mph /  11.3 km/h 9 mph /  14.5 km/h 84 % 0 in /  0.0 mm
08:37 57 °F /  13.9 °C 52.2 °F /  11.2 °C 30.3 in /  1024.6 hPa WNW 8 mph /  12.9 km/h 9 mph /  14.5 km/h 84 % 0 in /  0.0 mm
08:42 57.4 °F /  14.1 °C 52.3 °F /  11.3 °C 30.3 in /  1024.6 hPa WSW 5 mph /  8.0 km/h 13 mph /  20.9 km/h 83 % 0 in /  0.0 mm
08:47 57.6 °F /  14.2 °C 52.5 °F /  11.4 °C 30.3 in /  1024.9 hPa West 5 mph /  8.0 km/h 13 mph /  20.9 km/h 83 % 0 in /  0.0 mm
08:52 57.7 °F /  14.3 °C 52.7 °F /  11.5 °C 30.3 in /  1024.9 hPa Calm   13 mph /  20.9 km/h 83 % 0 in /  0.0 mm
08:57 57.9 °F /  14.4 °C 52.5 °F /  11.4 °C 30.3 in /  1024.9 hPa West 5 mph /  8.0 km/h 9 mph /  14.5 km/h 82 % 0 in /  0.0 mm
09:02 58.3 °F /  14.6 °C 52.5 °F /  11.4 °C 30.3 in /  1024.9 hPa West 3 mph /  4.8 km/h 9 mph /  14.5 km/h 81 % 0 in /  0.0 mm
09:07 58.6 °F /  14.8 °C 52.2 °F /  11.2 °C 30.3 in /  1024.9 hPa NW 3 mph /  4.8 km/h 7 mph /  11.3 km/h 79 % 0 in /  0.0 mm
09:12 59 °F /  15.0 °C 51.8 °F /  11.0 °C 30.3 in /  1024.9 hPa WNW 7 mph /  11.3 km/h 13 mph /  20.9 km/h 77 % 0 in /  0.0 mm
09:17 59.2 °F /  15.1 °C 51.6 °F /  10.9 °C 30.3 in /  1024.9 hPa West 7 mph /  11.3 km/h 13 mph /  20.9 km/h 76 % 0 in /  0.0 mm
09:22 58.6 °F /  14.8 °C 51.4 °F /  10.8 °C 30.3 in /  1024.9 hPa WSW 4 mph /  6.4 km/h 12 mph /  19.3 km/h 77 % 0 in /  0.0 mm
09:27 58.5 °F /  14.7 °C 51.3 °F /  10.7 °C 30.3 in /  1024.9 hPa WNW 4 mph /  6.4 km/h 10 mph /  16.1 km/h 77 % 0 in /  0.0 mm
09:32 58.5 °F /  14.7 °C 51.6 °F /  10.9 °C 30.3 in /  1024.9 hPa NNW 3 mph /  4.8 km/h 10 mph /  16.1 km/h 78 % 0 in /  0.0 mm
09:42 58.3 °F /  14.6 °C 51.4 °F /  10.8 °C 30.3 in /  1024.9 hPa West 6 mph /  9.7 km/h 8 mph /  12.9 km/h 78 % 0 in /  0.0 mm
09:47 58.3 °F /  14.6 °C 51.4 °F /  10.8 °C 30.3 in /  1025.3 hPa WNW 3 mph /  4.8 km/h 11 mph /  17.7 km/h 78 % 0 in /  0.0 mm
09:52 58.3 °F /  14.6 °C 51.4 °F /  10.8 °C 30.3 in /  1025.3 hPa West 3 mph /  4.8 km/h 11 mph /  17.7 km/h 78 % 0 in /  0.0 mm
09:57 58.3 °F /  14.6 °C 51.8 °F /  11.0 °C 30.3 in /  1025.3 hPa WNW 4 mph /  6.4 km/h 10 mph /  16.1 km/h 79 % 0 in /  0.0 mm
10:02 58.3 °F /  14.6 °C 51.8 °F /  11.0 °C 30.3 in /  1025.3 hPa West 7 mph /  11.3 km/h 10 mph /  16.1 km/h 79 % 0 in /  0.0 mm
10:07 58.1 °F /  14.5 °C 51.6 °F /  10.9 °C 30.3 in /  1025.3 hPa West 5 mph /  8.0 km/h 13 mph /  20.9 km/h 79 % 0 in /  0.0 mm
10:12 58.3 °F /  14.6 °C 52.2 °F /  11.2 °C 30.3 in /  1025.3 hPa WNW 5 mph /  8.0 km/h 13 mph /  20.9 km/h 80 % 0 in /  0.0 mm
10:22 58.5 °F /  14.7 °C 52 °F /  11.1 °C 30.3 in /  1025.3 hPa West 1 mph /  1.6 km/h 9 mph /  14.5 km/h 79 % 0 in /  0.0 mm
10:27 58.6 °F /  14.8 °C 51.1 °F /  10.6 °C 30.3 in /  1025.3 hPa WNW 8 mph /  12.9 km/h 9 mph /  14.5 km/h 76 % 0 in /  0.0 mm
10:32 58.5 °F /  14.7 °C 50.5 °F /  10.3 °C 30.3 in /  1025.3 hPa NW 6 mph /  9.7 km/h 14 mph /  22.5 km/h 75 % 0 in /  0.0 mm
10:37 58.6 °F /  14.8 °C 50.4 °F /  10.2 °C 30.3 in /  1025.3 hPa WSW 7 mph /  11.3 km/h 14 mph /  22.5 km/h 74 % 0 in /  0.0 mm
10:42 58.6 °F /  14.8 °C 50 °F /  10.0 °C 30.3 in /  1025.3 hPa WSW 7 mph /  11.3 km/h 14 mph /  22.5 km/h 73 % 0 in /  0.0 mm
10:47 58.6 °F /  14.8 °C 50 °F /  10.0 °C 30.3 in /  1025.3 hPa WNW 6 mph /  9.7 km/h 12 mph /  19.3 km/h 73 % 0 in /  0.0 mm
10:52 58.6 °F /  14.8 °C 48.6 °F /  9.2 °C 30.3 in /  1025.3 hPa WNW 13 mph /  20.9 km/h 14 mph /  22.5 km/h 69 % 0 in /  0.0 mm
10:57 58.8 °F /  14.9 °C 48.2 °F /  9.0 °C 30.3 in /  1025.3 hPa West 9 mph /  14.5 km/h 14 mph /  22.5 km/h 68 % 0 in /  0.0 mm
11:02 58.8 °F /  14.9 °C 48.2 °F /  9.0 °C 30.3 in /  1025.3 hPa WNW 6 mph /  9.7 km/h 14 mph /  22.5 km/h 68 % 0 in /  0.0 mm
11:07 59.2 °F /  15.1 °C 48.6 °F /  9.2 °C 30.3 in /  1025.3 hPa WNW 7 mph /  11.3 km/h 14 mph /  22.5 km/h 68 % 0 in /  0.0 mm
11:12 59.4 °F /  15.2 °C 48.4 °F /  9.1 °C 30.3 in /  1025.3 hPa West 6 mph /  9.7 km/h 14 mph /  22.5 km/h 67 % 0 in /  0.0 mm
11:17 59.5 °F /  15.3 °C 48.2 °F /  9.0 °C 30.3 in /  1025.3 hPa WNW 8 mph /  12.9 km/h 14 mph /  22.5 km/h 66 % 0 in /  0.0 mm
11:22 60.1 °F /  15.6 °C 49.1 °F /  9.5 °C 30.3 in /  1025.3 hPa NW 2 mph /  3.2 km/h 13 mph /  20.9 km/h 67 % 0 in /  0.0 mm
11:27 60.4 °F /  15.8 °C 49.1 °F /  9.5 °C 30.3 in /  1025.3 hPa West 10 mph /  16.1 km/h 12 mph /  19.3 km/h 66 % 0 in /  0.0 mm
11:37 60.4 °F /  15.8 °C 49.1 °F /  9.5 °C 30.3 in /  1025.3 hPa WNW 5 mph /  8.0 km/h 13 mph /  20.9 km/h 66 % 0 in /  0.0 mm
11:42 60.4 °F /  15.8 °C 49.1 °F /  9.5 °C 30.3 in /  1025.3 hPa WNW 5 mph /  8.0 km/h 13 mph /  20.9 km/h 66 % 0 in /  0.0 mm
11:52 60.8 °F /  16.0 °C 48.6 °F /  9.2 °C 30.3 in /  1025.3 hPa WNW 4 mph /  6.4 km/h 11 mph /  17.7 km/h 64 % 0 in /  0.0 mm
11:57 61 °F /  16.1 °C 48.4 °F /  9.1 °C 30.3 in /  1025.3 hPa NW 5 mph /  8.0 km/h 11 mph /  17.7 km/h 63 % 0 in /  0.0 mm
12:02 61.5 °F /  16.4 °C 49.6 °F /  9.8 °C 30.3 in /  1024.9 hPa NW 3 mph /  4.8 km/h 11 mph /  17.7 km/h 65 % 0 in /  0.0 mm
12:07 61.3 °F /  16.3 °C 49.1 °F /  9.5 °C 30.3 in /  1024.9 hPa West 3 mph /  4.8 km/h 8 mph /  12.9 km/h 64 % 0 in /  0.0 mm
12:12 61.2 °F /  16.2 °C 48.9 °F /  9.4 °C 30.3 in /  1024.9 hPa West 7 mph /  11.3 km/h 16 mph /  25.7 km/h 64 % 0 in /  0.0 mm
12:17 61.2 °F /  16.2 °C 48.9 °F /  9.4 °C 30.3 in /  1024.9 hPa WSW 1 mph /  1.6 km/h 16 mph /  25.7 km/h 64 % 0 in /  0.0 mm
12:22 61.9 °F /  16.6 °C 49.6 °F /  9.8 °C 30.3 in /  1024.9 hPa West 4 mph /  6.4 km/h 16 mph /  25.7 km/h 64 % 0 in /  0.0 mm
12:32 62.2 °F /  16.8 °C 49.5 °F /  9.7 °C 30.3 in /  1024.9 hPa North 4 mph /  6.4 km/h 10 mph /  16.1 km/h 63 % 0 in /  0.0 mm
12:42 62.8 °F /  17.1 °C 50 °F /  10.0 °C 30.3 in /  1024.9 hPa WNW 3 mph /  4.8 km/h 9 mph /  14.5 km/h 63 % 0 in /  0.0 mm
12:47 62.8 °F /  17.1 °C 49.1 °F /  9.5 °C 30.3 in /  1024.9 hPa WNW 8 mph /  12.9 km/h 10 mph /  16.1 km/h 61 % 0 in /  0.0 mm
12:52 62.6 °F /  17.0 °C 49.8 °F /  9.9 °C 30.3 in /  1024.9 hPa SW 2 mph /  3.2 km/h 10 mph /  16.1 km/h 63 % 0 in /  0.0 mm
12:57 62.2 °F /  16.8 °C 50 °F /  10.0 °C 30.3 in /  1024.9 hPa West 5 mph /  8.0 km/h 11 mph /  17.7 km/h 64 % 0 in /  0.0 mm
13:02 62.2 °F /  16.8 °C 50 °F /  10.0 °C 30.3 in /  1024.9 hPa West 4 mph /  6.4 km/h 11 mph /  17.7 km/h 64 % 0 in /  0.0 mm
13:07 63 °F /  17.2 °C 50.2 °F /  10.1 °C 30.3 in /  1024.9 hPa West 4 mph /  6.4 km/h 11 mph /  17.7 km/h 63 % 0 in /  0.0 mm
13:12 63.5 °F /  17.5 °C 49.3 °F /  9.6 °C 30.3 in /  1024.9 hPa WNW 6 mph /  9.7 km/h 10 mph /  16.1 km/h 60 % 0 in /  0.0 mm
13:17 63.7 °F /  17.6 °C 49.1 °F /  9.5 °C 30.3 in /  1024.9 hPa WNW 11 mph /  17.7 km/h 11 mph /  17.7 km/h 59 % 0 in /  0.0 mm
13:22 63.3 °F /  17.4 °C 48.7 °F /  9.3 °C 30.3 in /  1024.9 hPa West 5 mph /  8.0 km/h 12 mph /  19.3 km/h 59 % 0 in /  0.0 mm
13:32 63.3 °F /  17.4 °C 49.3 °F /  9.6 °C 30.3 in /  1024.9 hPa NW 3 mph /  4.8 km/h 12 mph /  19.3 km/h 60 % 0 in /  0.0 mm
13:37 63.5 °F /  17.5 °C 48.9 °F /  9.4 °C 30.3 in /  1024.9 hPa WNW 7 mph /  11.3 km/h 11 mph /  17.7 km/h 59 % 0 in /  0.0 mm
13:47 64.2 °F /  17.9 °C 48.7 °F /  9.3 °C 30.3 in /  1024.6 hPa West 11 mph /  17.7 km/h 13 mph /  20.9 km/h 57 % 0 in /  0.0 mm
13:52 64.2 °F /  17.9 °C 48.7 °F /  9.3 °C 30.3 in /  1024.6 hPa WSW 4 mph /  6.4 km/h 13 mph /  20.9 km/h 57 % 0 in /  0.0 mm
13:57 64.4 °F /  18.0 °C 48.4 °F /  9.1 °C 30.3 in /  1024.6 hPa WNW 6 mph /  9.7 km/h 13 mph /  20.9 km/h 56 % 0 in /  0.0 mm
14:02 64.2 °F /  17.9 °C 48.2 °F /  9.0 °C 30.3 in /  1024.6 hPa West 4 mph /  6.4 km/h 13 mph /  20.9 km/h 56 % 0 in /  0.0 mm
14:07 64.6 °F /  18.1 °C 49.5 °F /  9.7 °C 30.3 in /  1024.6 hPa WSW 4 mph /  6.4 km/h 13 mph /  20.9 km/h 58 % 0 in /  0.0 mm
14:12 64.9 °F /  18.3 °C 48.9 °F /  9.4 °C 30.3 in /  1024.6 hPa West 8 mph /  12.9 km/h 15 mph /  24.1 km/h 56 % 0 in /  0.0 mm
14:17 65.5 °F /  18.6 °C 48.9 °F /  9.4 °C 30.3 in /  1024.6 hPa West 4 mph /  6.4 km/h 15 mph /  24.1 km/h 55 % 0 in /  0.0 mm
14:22 65.5 °F /  18.6 °C 49.3 °F /  9.6 °C 30.3 in /  1024.3 hPa WNW 1 mph /  1.6 km/h 15 mph /  24.1 km/h 56 % 0 in /  0.0 mm
14:27 65.1 °F /  18.4 °C 48 °F /  8.9 °C 30.3 in /  1024.3 hPa NNE 3 mph /  4.8 km/h 13 mph /  20.9 km/h 54 % 0 in /  0.0 mm
14:32 65.3 °F /  18.5 °C 48.7 °F /  9.3 °C 30.3 in /  1024.3 hPa West 7 mph /  11.3 km/h 9 mph /  14.5 km/h 55 % 0 in /  0.0 mm
14:37 65.7 °F /  18.7 °C 49.1 °F /  9.5 °C 30.3 in /  1024.3 hPa NW 5 mph /  8.0 km/h 9 mph /  14.5 km/h 55 % 0 in /  0.0 mm
14:42 65.8 °F /  18.8 °C 48.7 °F /  9.3 °C 30.3 in /  1024.3 hPa WNW 3 mph /  4.8 km/h 9 mph /  14.5 km/h 54 % 0 in /  0.0 mm
14:47 66 °F /  18.9 °C 49.5 °F /  9.7 °C 30.3 in /  1024.3 hPa North 3 mph /  4.8 km/h 9 mph /  14.5 km/h 55 % 0 in /  0.0 mm
14:52 66.2 °F /  19.0 °C 49.6 °F /  9.8 °C 30.3 in /  1024.3 hPa NNW 5 mph /  8.0 km/h 9 mph /  14.5 km/h 55 % 0 in /  0.0 mm
14:57 66 °F /  18.9 °C 49.5 °F /  9.7 °C 30.3 in /  1024.3 hPa NW 3 mph /  4.8 km/h 11 mph /  17.7 km/h 55 % 0 in /  0.0 mm
15:02 66 °F /  18.9 °C 48.9 °F /  9.4 °C 30.3 in /  1024.3 hPa WNW 3 mph /  4.8 km/h 11 mph /  17.7 km/h 54 % 0 in /  0.0 mm
15:07 65.8 °F /  18.8 °C 49.3 °F /  9.6 °C 30.3 in /  1024.3 hPa WNW 7 mph /  11.3 km/h 10 mph /  16.1 km/h 55 % 0 in /  0.0 mm
15:12 66 °F /  18.9 °C 49.5 °F /  9.7 °C 30.3 in /  1024.3 hPa NW 5 mph /  8.0 km/h 11 mph /  17.7 km/h 55 % 0 in /  0.0 mm
15:17 65.8 °F /  18.8 °C 48.7 °F /  9.3 °C 30.3 in /  1024.3 hPa West 3 mph /  4.8 km/h 11 mph /  17.7 km/h 54 % 0 in /  0.0 mm
15:22 66 °F /  18.9 °C 49.5 °F /  9.7 °C 30.3 in /  1024.3 hPa WNW 4 mph /  6.4 km/h 11 mph /  17.7 km/h 55 % 0 in /  0.0 mm
15:27 66.2 °F /  19.0 °C 49.1 °F /  9.5 °C 30.2 in /  1023.9 hPa WNW 5 mph /  8.0 km/h 11 mph /  17.7 km/h 54 % 0 in /  0.0 mm
15:32 66.4 °F /  19.1 °C 49.3 °F /  9.6 °C 30.2 in /  1023.9 hPa NNW 1 mph /  1.6 km/h 9 mph /  14.5 km/h 54 % 0 in /  0.0 mm
15:37 66.4 °F /  19.1 °C 49.3 °F /  9.6 °C 30.2 in /  1023.9 hPa WNW 5 mph /  8.0 km/h 9 mph /  14.5 km/h 54 % 0 in /  0.0 mm
15:42 66.4 °F /  19.1 °C 48.7 °F /  9.3 °C 30.2 in /  1023.9 hPa WNW 3 mph /  4.8 km/h 9 mph /  14.5 km/h 53 % 0 in /  0.0 mm
15:47 66.6 °F /  19.2 °C 49.8 °F /  9.9 °C 30.2 in /  1023.9 hPa NNW 4 mph /  6.4 km/h 9 mph /  14.5 km/h 55 % 0 in /  0.0 mm
15:57 67.5 °F /  19.7 °C 48.7 °F /  9.3 °C 30.2 in /  1023.6 hPa WNW 7 mph /  11.3 km/h 9 mph /  14.5 km/h 51 % 0 in /  0.0 mm
16:02 68.4 °F /  20.2 °C 48.9 °F /  9.4 °C 30.2 in /  1023.6 hPa WNW 5 mph /  8.0 km/h 11 mph /  17.7 km/h 50 % 0 in /  0.0 mm
16:07 68.2 °F /  20.1 °C 47.7 °F /  8.7 °C 30.2 in /  1023.6 hPa West 5 mph /  8.0 km/h 13 mph /  20.9 km/h 48 % 0 in /  0.0 mm
16:12 68.2 °F /  20.1 °C 47.7 °F /  8.7 °C 30.2 in /  1023.6 hPa West 9 mph /  14.5 km/h 17 mph /  27.4 km/h 48 % 0 in /  0.0 mm
16:17 67.6 °F /  19.8 °C 47.8 °F /  8.8 °C 30.2 in /  1023.6 hPa West 12 mph /  19.3 km/h 17 mph /  27.4 km/h 49 % 0 in /  0.0 mm
16:22 68.7 °F /  20.4 °C 48.2 °F /  9.0 °C 30.2 in /  1023.6 hPa West 8 mph /  12.9 km/h 15 mph /  24.1 km/h 48 % 0 in /  0.0 mm
16:27 68.7 °F /  20.4 °C 48.2 °F /  9.0 °C 30.2 in /  1023.6 hPa South 3 mph /  4.8 km/h 18 mph /  29.0 km/h 48 % 0 in /  0.0 mm
16:32 68.4 °F /  20.2 °C 47.8 °F /  8.8 °C 30.2 in /  1023.6 hPa West 6 mph /  9.7 km/h 18 mph /  29.0 km/h 48 % 0 in /  0.0 mm
16:37 68 °F /  20.0 °C 48.2 °F /  9.0 °C 30.2 in /  1023.6 hPa SW 5 mph /  8.0 km/h 18 mph /  29.0 km/h 49 % 0 in /  0.0 mm
16:42 67.8 °F /  19.9 °C 48.6 °F /  9.2 °C 30.2 in /  1023.6 hPa WNW 13 mph /  20.9 km/h 15 mph /  24.1 km/h 50 % 0 in /  0.0 mm
16:47 67.6 °F /  19.8 °C 48.4 °F /  9.1 °C 30.2 in /  1023.6 hPa WSW 5 mph /  8.0 km/h 14 mph /  22.5 km/h 50 % 0 in /  0.0 mm
16:52 67.3 °F /  19.6 °C 48 °F /  8.9 °C 30.2 in /  1023.6 hPa WNW 5 mph /  8.0 km/h 13 mph /  20.9 km/h 50 % 0 in /  0.0 mm
16:57 67.3 °F /  19.6 °C 48 °F /  8.9 °C 30.2 in /  1023.2 hPa WNW 9 mph /  14.5 km/h 13 mph /  20.9 km/h 50 % 0 in /  0.0 mm
17:02 67.3 °F /  19.6 °C 48.6 °F /  9.2 °C 30.2 in /  1023.2 hPa West 4 mph /  6.4 km/h 11 mph /  17.7 km/h 51 % 0 in /  0.0 mm
17:07 67.1 °F /  19.5 °C 47.8 °F /  8.8 °C 30.2 in /  1023.2 hPa WNW 5 mph /  8.0 km/h 11 mph /  17.7 km/h 50 % 0 in /  0.0 mm
17:12 67.1 °F /  19.5 °C 48.4 °F /  9.1 °C 30.2 in /  1023.2 hPa WNW 4 mph /  6.4 km/h 11 mph /  17.7 km/h 51 % 0 in /  0.0 mm
17:17 67.3 °F /  19.6 °C 48 °F /  8.9 °C 30.2 in /  1023.2 hPa NW 4 mph /  6.4 km/h 11 mph /  17.7 km/h 50 % 0 in /  0.0 mm
17:22 67.5 °F /  19.7 °C 48.2 °F /  9.0 °C 30.2 in /  1023.2 hPa WNW 8 mph /  12.9 km/h 11 mph /  17.7 km/h 50 % 0 in /  0.0 mm
17:27 67.1 °F /  19.5 °C 48.4 °F /  9.1 °C 30.2 in /  1023.2 hPa SSW 4 mph /  6.4 km/h 12 mph /  19.3 km/h 51 % 0 in /  0.0 mm
17:32 66.9 °F /  19.4 °C 47.7 °F /  8.7 °C 30.2 in /  1023.2 hPa West 10 mph /  16.1 km/h 13 mph /  20.9 km/h 50 % 0 in /  0.0 mm
17:37 66.7 °F /  19.3 °C 48 °F /  8.9 °C 30.2 in /  1023.2 hPa WNW 5 mph /  8.0 km/h 13 mph /  20.9 km/h 51 % 0 in /  0.0 mm
17:42 66.7 °F /  19.3 °C 48 °F /  8.9 °C 30.2 in /  1023.2 hPa West 3 mph /  4.8 km/h 13 mph /  20.9 km/h 51 % 0 in /  0.0 mm
17:47 66.7 °F /  19.3 °C 48 °F /  8.9 °C 30.2 in /  1023.2 hPa West 4 mph /  6.4 km/h 13 mph /  20.9 km/h 51 % 0 in /  0.0 mm
17:52 66.7 °F /  19.3 °C 48.6 °F /  9.2 °C 30.2 in /  1023.2 hPa WNW 4 mph /  6.4 km/h 11 mph /  17.7 km/h 52 % 0 in /  0.0 mm
17:57 66.7 °F /  19.3 °C 48.6 °F /  9.2 °C 30.2 in /  1023.2 hPa West 5 mph /  8.0 km/h 11 mph /  17.7 km/h 52 % 0 in /  0.0 mm
18:02 66.6 °F /  19.2 °C 48.9 °F /  9.4 °C 30.2 in /  1023.2 hPa NW 7 mph /  11.3 km/h 11 mph /  17.7 km/h 53 % 0 in /  0.0 mm
18:07 66.6 °F /  19.2 °C 48.9 °F /  9.4 °C 30.2 in /  1023.2 hPa North 5 mph /  8.0 km/h 12 mph /  19.3 km/h 53 % 0 in /  0.0 mm
18:12 66.4 °F /  19.1 °C 48.7 °F /  9.3 °C 30.2 in /  1023.2 hPa WNW 3 mph /  4.8 km/h 12 mph /  19.3 km/h 53 % 0 in /  0.0 mm
18:17 66.2 °F /  19.0 °C 48.6 °F /  9.2 °C 30.2 in /  1023.2 hPa WNW 8 mph /  12.9 km/h 12 mph /  19.3 km/h 53 % 0 in /  0.0 mm
18:22 66 °F /  18.9 °C 48.9 °F /  9.4 °C 30.2 in /  1023.2 hPa West 3 mph /  4.8 km/h 12 mph /  19.3 km/h 54 % 0 in /  0.0 mm
18:32 66.2 °F /  19.0 °C 49.1 °F /  9.5 °C 30.2 in /  1023.2 hPa NNW 3 mph /  4.8 km/h 10 mph /  16.1 km/h 54 % 0 in /  0.0 mm
18:42 66 °F /  18.9 °C 48.4 °F /  9.1 °C 30.2 in /  1023.2 hPa West 8 mph /  12.9 km/h 10 mph /  16.1 km/h 53 % 0 in /  0.0 mm
18:47 66 °F /  18.9 °C 48.4 °F /  9.1 °C 30.2 in /  1023.2 hPa WNW 7 mph /  11.3 km/h 11 mph /  17.7 km/h 53 % 0 in /  0.0 mm
18:52 65.8 °F /  18.8 °C 48.2 °F /  9.0 °C 30.2 in /  1023.2 hPa West 2 mph /  3.2 km/h 12 mph /  19.3 km/h 53 % 0 in /  0.0 mm
18:57 65.8 °F /  18.8 °C 48.7 °F /  9.3 °C 30.2 in /  1023.2 hPa NW 3 mph /  4.8 km/h 12 mph /  19.3 km/h 54 % 0 in /  0.0 mm
19:02 65.8 °F /  18.8 °C 48.2 °F /  9.0 °C 30.2 in /  1023.2 hPa NNW 3 mph /  4.8 km/h 12 mph /  19.3 km/h 53 % 0 in /  0.0 mm
19:07 65.7 °F /  18.7 °C 48 °F /  8.9 °C 30.2 in /  1023.2 hPa WNW 6 mph /  9.7 km/h 9 mph /  14.5 km/h 53 % 0 in /  0.0 mm
19:12 65.7 °F /  18.7 °C 48.6 °F /  9.2 °C 30.2 in /  1023.2 hPa NW 2 mph /  3.2 km/h 9 mph /  14.5 km/h 54 % 0 in /  0.0 mm
19:17 65.7 °F /  18.7 °C 48.6 °F /  9.2 °C 30.2 in /  1023.2 hPa WNW 3 mph /  4.8 km/h 8 mph /  12.9 km/h 54 % 0 in /  0.0 mm
19:22 65.5 °F /  18.6 °C 48.4 °F /  9.1 °C 30.2 in /  1023.2 hPa WNW 3 mph /  4.8 km/h 8 mph /  12.9 km/h 54 % 0 in /  0.0 mm
19:27 65.5 °F /  18.6 °C 48.4 °F /  9.1 °C 30.2 in /  1023.2 hPa WNW 3 mph /  4.8 km/h 7 mph /  11.3 km/h 54 % 0 in /  0.0 mm
19:32 65.5 °F /  18.6 °C 48.4 °F /  9.1 °C 30.2 in /  1023.2 hPa WNW 5 mph /  8.0 km/h 7 mph /  11.3 km/h 54 % 0 in /  0.0 mm
19:37 65.5 °F /  18.6 °C 48.4 °F /  9.1 °C 30.2 in /  1023.2 hPa NNW 3 mph /  4.8 km/h 8 mph /  12.9 km/h 54 % 0 in /  0.0 mm
19:42 65.3 °F /  18.5 °C 48.7 °F /  9.3 °C 30.2 in /  1023.2 hPa WNW 5 mph /  8.0 km/h 8 mph /  12.9 km/h 55 % 0 in /  0.0 mm
19:47 65.1 °F /  18.4 °C 48.6 °F /  9.2 °C 30.2 in /  1023.2 hPa WNW 5 mph /  8.0 km/h 8 mph /  12.9 km/h 55 % 0 in /  0.0 mm
19:52 65.1 °F /  18.4 °C 48.6 °F /  9.2 °C 30.2 in /  1023.2 hPa WNW 3 mph /  4.8 km/h 8 mph /  12.9 km/h 55 % 0 in /  0.0 mm
19:57 64.9 °F /  18.3 °C 48.9 °F /  9.4 °C 30.2 in /  1023.2 hPa West 2 mph /  3.2 km/h 8 mph /  12.9 km/h 56 % 0 in /  0.0 mm
20:02 64.9 °F /  18.3 °C 48.4 °F /  9.1 °C 30.2 in /  1023.2 hPa NW 4 mph /  6.4 km/h 6 mph /  9.7 km/h 55 % 0 in /  0.0 mm
20:12 64.8 °F /  18.2 °C 48.7 °F /  9.3 °C 30.2 in /  1023.2 hPa WNW 2 mph /  3.2 km/h 7 mph /  11.3 km/h 56 % 0 in /  0.0 mm
20:17 64.6 °F /  18.1 °C 48.9 °F /  9.4 °C 30.2 in /  1023.2 hPa West 1 mph /  1.6 km/h 6 mph /  9.7 km/h 57 % 0 in /  0.0 mm
20:22 64.6 °F /  18.1 °C 48.9 °F /  9.4 °C 30.2 in /  1023.6 hPa West 1 mph /  1.6 km/h 5 mph /  8.0 km/h 57 % 0 in /  0.0 mm
20:27 64.4 °F /  18.0 °C 48.9 °F /  9.4 °C 30.2 in /  1023.6 hPa West 1 mph /  1.6 km/h 4 mph /  6.4 km/h 57 % 0 in /  0.0 mm
20:32 64.2 °F /  17.9 °C 48.7 °F /  9.3 °C 30.2 in /  1023.6 hPa Calm   3 mph /  4.8 km/h 57 % 0 in /  0.0 mm
20:37 64.2 °F /  17.9 °C 49.1 °F /  9.5 °C 30.2 in /  1023.6 hPa WNW 2 mph /  3.2 km/h 2 mph /  3.2 km/h 58 % 0 in /  0.0 mm
20:42 64.2 °F /  17.9 °C 49.1 °F /  9.5 °C 30.2 in /  1023.6 hPa West 3 mph /  4.8 km/h 3 mph /  4.8 km/h 58 % 0 in /  0.0 mm
20:47 64 °F /  17.8 °C 48.9 °F /  9.4 °C 30.2 in /  1023.6 hPa Calm   4 mph /  6.4 km/h 58 % 0 in /  0.0 mm
20:52 63.9 °F /  17.7 °C 49.3 °F /  9.6 °C 30.2 in /  1023.6 hPa West 1 mph /  1.6 km/h 4 mph /  6.4 km/h 59 % 0 in /  0.0 mm
20:57 63.9 °F /  17.7 °C 49.3 °F /  9.6 °C 30.2 in /  1023.6 hPa WNW 1 mph /  1.6 km/h 4 mph /  6.4 km/h 59 % 0 in /  0.0 mm
21:02 63.9 °F /  17.7 °C 49.3 °F /  9.6 °C 30.2 in /  1023.6 hPa West 1 mph /  1.6 km/h 3 mph /  4.8 km/h 59 % 0 in /  0.0 mm
21:07 63.9 °F /  17.7 °C 49.3 °F /  9.6 °C 30.2 in /  1023.9 hPa WNW 1 mph /  1.6 km/h 3 mph /  4.8 km/h 59 % 0 in /  0.0 mm
21:12 63.7 °F /  17.6 °C 49.1 °F /  9.5 °C 30.2 in /  1023.9 hPa Calm   3 mph /  4.8 km/h 59 % 0 in /  0.0 mm
21:17 63.7 °F /  17.6 °C 49.5 °F /  9.7 °C 30.2 in /  1023.9 hPa West 1 mph /  1.6 km/h 3 mph /  4.8 km/h 60 % 0 in /  0.0 mm
21:22 63.5 °F /  17.5 °C 49.3 °F /  9.6 °C 30.2 in /  1023.9 hPa WNW 2 mph /  3.2 km/h 2 mph /  3.2 km/h 60 % 0 in /  0.0 mm
21:27 63.5 °F /  17.5 °C 49.3 °F /  9.6 °C 30.2 in /  1023.9 hPa Calm   2 mph /  3.2 km/h 60 % 0 in /  0.0 mm
21:32 63.3 °F /  17.4 °C 49.6 °F /  9.8 °C 30.2 in /  1023.9 hPa NW 2 mph /  3.2 km/h 2 mph /  3.2 km/h 61 % 0 in /  0.0 mm
21:37 63.3 °F /  17.4 °C 49.6 °F /  9.8 °C 30.3 in /  1024.3 hPa Calm   2 mph /  3.2 km/h 61 % 0 in /  0.0 mm
21:42 63.1 °F /  17.3 °C 49.5 °F /  9.7 °C 30.3 in /  1024.3 hPa WNW 1 mph /  1.6 km/h 2 mph /  3.2 km/h 61 % 0 in /  0.0 mm
21:47 63 °F /  17.2 °C 49.8 °F /  9.9 °C 30.2 in /  1023.9 hPa WNW 2 mph /  3.2 km/h 3 mph /  4.8 km/h 62 % 0 in /  0.0 mm
21:52 63 °F /  17.2 °C 49.8 °F /  9.9 °C 30.2 in /  1023.9 hPa WNW 1 mph /  1.6 km/h 3 mph /  4.8 km/h 62 % 0 in /  0.0 mm
21:57 62.8 °F /  17.1 °C 49.6 °F /  9.8 °C 30.2 in /  1023.9 hPa Calm   3 mph /  4.8 km/h 62 % 0 in /  0.0 mm
22:02 62.8 °F /  17.1 °C 50 °F /  10.0 °C 30.2 in /  1023.9 hPa WNW 1 mph /  1.6 km/h 3 mph /  4.8 km/h 63 % 0 in /  0.0 mm
22:07 62.8 °F /  17.1 °C 50 °F /  10.0 °C 30.2 in /  1023.9 hPa WNW 1 mph /  1.6 km/h 3 mph /  4.8 km/h 63 % 0 in /  0.0 mm
22:12 62.8 °F /  17.1 °C 50 °F /  10.0 °C 30.2 in /  1023.9 hPa NW 2 mph /  3.2 km/h 3 mph /  4.8 km/h 63 % 0 in /  0.0 mm
22:17 62.6 °F /  17.0 °C 49.8 °F /  9.9 °C 30.2 in /  1023.9 hPa Calm   3 mph /  4.8 km/h 63 % 0 in /  0.0 mm
22:22 62.6 °F /  17.0 °C 50.2 °F /  10.1 °C 30.2 in /  1023.9 hPa WNW 4 mph /  6.4 km/h 5 mph /  8.0 km/h 64 % 0 in /  0.0 mm
22:27 62.4 °F /  16.9 °C 50 °F /  10.0 °C 30.2 in /  1023.9 hPa West 1 mph /  1.6 km/h 5 mph /  8.0 km/h 64 % 0 in /  0.0 mm
22:32 62.4 °F /  16.9 °C 50 °F /  10.0 °C 30.2 in /  1023.9 hPa West 2 mph /  3.2 km/h 6 mph /  9.7 km/h 64 % 0 in /  0.0 mm
22:37 62.4 °F /  16.9 °C 50 °F /  10.0 °C 30.2 in /  1023.6 hPa West 2 mph /  3.2 km/h 6 mph /  9.7 km/h 64 % 0 in /  0.0 mm
22:42 62.2 °F /  16.8 °C 50.4 °F /  10.2 °C 30.2 in /  1023.6 hPa WNW 2 mph /  3.2 km/h 6 mph /  9.7 km/h 65 % 0 in /  0.0 mm
22:52 62.2 °F /  16.8 °C 50.4 °F /  10.2 °C 30.2 in /  1023.6 hPa WNW 1 mph /  1.6 km/h 5 mph /  8.0 km/h 65 % 0 in /  0.0 mm
22:57 62.2 °F /  16.8 °C 50.4 °F /  10.2 °C 30.2 in /  1023.6 hPa West 3 mph /  4.8 km/h 5 mph /  8.0 km/h 65 % 0 in /  0.0 mm
23:02 62.2 °F /  16.8 °C 50.4 °F /  10.2 °C 30.2 in /  1023.6 hPa West 3 mph /  4.8 km/h 5 mph /  8.0 km/h 65 % 0 in /  0.0 mm
23:07 62.2 °F /  16.8 °C 50.4 °F /  10.2 °C 30.2 in /  1023.6 hPa WNW 2 mph /  3.2 km/h 5 mph /  8.0 km/h 65 % 0 in /  0.0 mm
23:12 62.2 °F /  16.8 °C 50.4 °F /  10.2 °C 30.2 in /  1023.6 hPa West 3 mph /  4.8 km/h 5 mph /  8.0 km/h 65 % 0 in /  0.0 mm
23:17 62.1 °F /  16.7 °C 50.2 °F /  10.1 °C 30.2 in /  1023.6 hPa West 2 mph /  3.2 km/h 6 mph /  9.7 km/h 65 % 0 in /  0.0 mm
23:22 62.1 °F /  16.7 °C 50.5 °F /  10.3 °C 30.2 in /  1023.6 hPa West 4 mph /  6.4 km/h 6 mph /  9.7 km/h 66 % 0 in /  0.0 mm
23:27 62.1 °F /  16.7 °C 50.5 °F /  10.3 °C 30.2 in /  1023.6 hPa West 2 mph /  3.2 km/h 6 mph /  9.7 km/h 66 % 0 in /  0.0 mm
23:32 61.9 °F /  16.6 °C 50.4 °F /  10.2 °C 30.2 in /  1023.6 hPa WNW 2 mph /  3.2 km/h 6 mph /  9.7 km/h 66 % 0 in /  0.0 mm
23:37 61.9 °F /  16.6 °C 50.4 °F /  10.2 °C 30.2 in /  1023.6 hPa West 4 mph /  6.4 km/h 6 mph /  9.7 km/h 66 % 0 in /  0.0 mm
23:42 61.9 °F /  16.6 °C 50.4 °F /  10.2 °C 30.2 in /  1023.6 hPa West 2 mph /  3.2 km/h 8 mph /  12.9 km/h 66 % 0 in /  0.0 mm
23:47 61.9 °F /  16.6 °C 50.4 °F /  10.2 °C 30.2 in /  1023.6 hPa WNW 2 mph /  3.2 km/h 8 mph /  12.9 km/h 66 % 0 in /  0.0 mm
23:52 61.9 °F /  16.6 °C 50.4 °F /  10.2 °C 30.2 in /  1023.2 hPa WNW 4 mph /  6.4 km/h 8 mph /  12.9 km/h 66 % 0 in /  0.0 mm
23:57 61.9 °F /  16.6 °C 50.4 °F /  10.2 °C 30.2 in /  1023.2 hPa WSW 2 mph /  3.2 km/h 7 mph /  11.3 km/h 66 % 0 in /  0.0 mm
Meteo18
Compliments of Weather Underground - 4 mb

Script developed by  Jim McMurry - jmcmurry@mwt.net Adapted for the template by  Wim van der Kuil - Leuven-Template.eu

You find our weather info also at:

European Weather Network

Weather Underground

Equipment we use:

Weather-station
Davis Vue

Weather-program
Meteobridge

Weather-server
Raspberry PI 2 B+

Provider
1 and 1

Davis Vue

Meteobridge

Raspberry PI 2 B+

1 and 1